createdAt,value
2022-08-12T00:02:43.730Z,102125.38
2022-08-12T00:05:30.428Z,102122.75
2022-08-12T00:08:16.826Z,102122.00
2022-08-12T00:11:14.425Z,102124.66
2022-08-12T00:13:59.942Z,102117.00
2022-08-12T00:16:48.870Z,102116.63
2022-08-12T00:19:34.759Z,102113.19
2022-08-12T00:22:20.389Z,102120.00
2022-08-12T00:25:05.919Z,102117.59
2022-08-12T00:27:51.620Z,102123.56
2022-08-12T00:30:37.066Z,102124.78
2022-08-12T00:33:22.295Z,102109.34
2022-08-12T00:36:32.268Z,102112.69
2022-08-12T00:39:18.858Z,102121.78
2022-08-12T00:42:04.944Z,102126.22
2022-08-12T00:44:31.505Z,102122.03
2022-08-12T00:47:01.040Z,102127.28
2022-08-12T00:49:29.583Z,102126.69
2022-08-12T00:52:11.949Z,102129.78
2022-08-12T00:54:59.738Z,102118.91
2022-08-12T00:57:36.947Z,102124.06
2022-08-12T01:00:08.695Z,102125.38
2022-08-12T01:02:39.553Z,102130.75
2022-08-12T01:05:34.715Z,102117.00
2022-08-12T01:08:20.267Z,102123.69
2022-08-12T01:11:06.737Z,102115.19
2022-08-12T01:13:39.817Z,102113.78
2022-08-12T01:16:08.141Z,102111.63
2022-08-12T01:18:40.030Z,102113.75
2022-08-12T01:21:17.024Z,102114.75
2022-08-12T01:24:34.991Z,102111.88
2022-08-12T01:27:07.758Z,102114.94
2022-08-12T01:29:41.816Z,102113.28
2022-08-12T01:32:11.617Z,102114.25
2022-08-12T01:34:41.454Z,102108.13
2022-08-12T01:37:09.842Z,102107.06
2022-08-12T01:40:33.193Z,102111.50
2022-08-12T01:42:44.687Z,102103.97
2022-08-12T01:45:12.554Z,102106.44
2022-08-12T01:48:00.822Z,102109.69
2022-08-12T01:51:00.384Z,102107.19
2022-08-12T01:53:50.745Z,102108.50
2022-08-12T01:56:22.128Z,102098.81
2022-08-12T01:59:12.248Z,102103.66
2022-08-12T02:01:41.717Z,102105.97
2022-08-12T02:04:39.253Z,102113.38
2022-08-12T02:07:39.805Z,102103.91
2022-08-12T02:10:49.175Z,102110.44
2022-08-12T02:13:43.662Z,102107.63
2022-08-12T02:16:54.476Z,102105.31
2022-08-12T02:19:39.827Z,102097.03
2022-08-12T02:22:30.267Z,102100.50
2022-08-12T02:25:06.800Z,102098.16
2022-08-12T02:27:45.994Z,102100.00
2022-08-12T02:30:15.532Z,102104.09
2022-08-12T02:32:45.025Z,102098.97
2022-08-12T02:35:15.014Z,102094.69
2022-08-12T02:37:43.617Z,102099.59
2022-08-12T02:40:12.651Z,102089.41
2022-08-12T02:42:58.062Z,102092.16
2022-08-12T02:45:38.159Z,102083.66
2022-08-12T02:48:08.388Z,102092.53
2022-08-12T02:50:40.032Z,102088.34
2022-08-12T02:53:07.749Z,102093.38
2022-08-12T02:55:36.245Z,102090.03
2022-08-12T02:58:12.670Z,102086.91
2022-08-12T03:00:42.905Z,102087.97
2022-08-12T03:03:13.150Z,102078.16
2022-08-12T03:06:07.174Z,102085.34
2022-08-12T03:08:42.302Z,102083.78
2022-08-12T03:11:29.160Z,102086.63
2022-08-12T03:14:00.400Z,102067.00
2022-08-12T03:16:33.401Z,102079.44
2022-08-12T03:19:00.626Z,102070.47
2022-08-12T03:21:54.625Z,102071.31
2022-08-12T03:24:17.568Z,102081.25
2022-08-12T03:26:47.564Z,102074.78
2022-08-12T03:29:16.557Z,102063.34
2022-08-12T03:31:44.169Z,102064.19
2022-08-12T03:34:14.250Z,102065.09
2022-08-12T03:36:42.744Z,102072.28
2022-08-12T03:39:18.533Z,102061.06
2022-08-12T03:42:22.002Z,102066.41
2022-08-12T03:45:51.984Z,102067.03
2022-08-12T03:48:38.254Z,102058.69
2022-08-12T03:51:23.929Z,102059.81
2022-08-12T03:54:11.500Z,102066.38
2022-08-12T03:56:58.231Z,102066.22
2022-08-12T03:59:43.774Z,102072.91
2022-08-12T04:02:17.226Z,102070.91
2022-08-12T04:04:47.386Z,102073.66
2022-08-12T04:07:16.486Z,102070.03
2022-08-12T04:09:46.399Z,102067.69
2022-08-12T04:12:32.670Z,102070.06
2022-08-12T04:15:13.107Z,102069.53
2022-08-12T04:18:06.833Z,102066.50
2022-08-12T04:20:30.270Z,102070.25
2022-08-12T04:22:57.546Z,102067.44
2022-08-12T04:25:25.703Z,102073.31
2022-08-12T04:27:52.315Z,102067.81
2022-08-12T04:30:32.676Z,102068.31
2022-08-12T04:33:00.603Z,102068.16
2022-08-12T04:35:27.525Z,102063.13
2022-08-12T04:37:58.564Z,102070.59
2022-08-12T04:40:30.294Z,102060.66
2022-08-12T04:42:57.652Z,102067.41
2022-08-12T04:45:24.977Z,102060.44
2022-08-12T04:47:52.090Z,102063.19
2022-08-12T04:50:33.719Z,102060.66
2022-08-12T04:53:04.910Z,102061.13
2022-08-12T04:55:31.793Z,102062.34
2022-08-12T04:58:00.346Z,102058.53
2022-08-12T05:00:27.764Z,102060.34
2022-08-12T05:02:54.475Z,102060.00
2022-08-12T05:05:23.127Z,102068.88
2022-08-12T05:07:54.585Z,102069.38
2022-08-12T05:10:33.538Z,102060.50
2022-08-12T05:13:04.999Z,102064.75
2022-08-12T05:15:31.716Z,102064.03
2022-08-12T05:17:59.733Z,102071.59
2022-08-12T05:20:26.965Z,102070.38
2022-08-12T05:23:12.184Z,102071.00
2022-08-12T05:25:43.388Z,102065.38
2022-08-12T05:28:13.034Z,102077.19
2022-08-12T05:30:41.463Z,102069.41
2022-08-12T05:33:08.365Z,102075.06
2022-08-12T05:35:40.288Z,102068.72
2022-08-12T05:38:29.198Z,102069.78
2022-08-12T05:40:55.975Z,102070.09
2022-08-12T05:43:22.903Z,102081.00
2022-08-12T05:45:49.733Z,102082.69
2022-08-12T05:48:16.868Z,102091.31
2022-08-12T05:50:45.371Z,102088.75
2022-08-12T05:53:13.294Z,102084.63
2022-08-12T05:55:40.690Z,102083.72
2022-08-12T05:58:10.579Z,102085.47
2022-08-12T06:00:38.114Z,102089.56
2022-08-12T06:03:06.107Z,102083.06
2022-08-12T06:05:51.970Z,102086.91
2022-08-12T06:08:22.323Z,102089.38
2022-08-12T06:10:52.062Z,102090.41
2022-08-12T06:13:28.286Z,102083.53
2022-08-12T06:16:07.454Z,102084.47
2022-08-12T06:18:34.856Z,102091.56
2022-08-12T06:21:02.353Z,102091.03
2022-08-12T06:23:30.342Z,102095.88
2022-08-12T06:25:58.600Z,102097.63
2022-08-12T06:28:25.999Z,102090.59
2022-08-12T06:31:22.107Z,102088.25
2022-08-12T06:33:55.199Z,102096.88
2022-08-12T06:36:29.355Z,102085.47
2022-08-12T06:38:57.069Z,102089.00
2022-08-12T06:42:30.867Z,102082.41
2022-08-12T06:44:28.991Z,102084.97
2022-08-12T06:46:56.946Z,102093.06
2022-08-12T06:49:25.208Z,102096.41
2022-08-12T06:51:56.699Z,102089.47
2022-08-12T06:54:30.835Z,102092.31
2022-08-12T06:57:04.042Z,102090.75
2022-08-12T06:59:35.659Z,102096.25
2022-08-12T07:02:02.608Z,102102.50
2022-08-12T07:04:38.009Z,102102.53
2022-08-12T07:07:08.393Z,102098.97
2022-08-12T07:10:01.613Z,102101.75
2022-08-12T07:12:22.677Z,102104.84
2022-08-12T07:14:52.748Z,102100.66
2022-08-12T07:17:19.323Z,102105.41
2022-08-12T07:19:48.905Z,102095.97
2022-08-12T07:22:16.268Z,102095.97
2022-08-12T07:25:05.589Z,102093.66
2022-08-12T07:27:38.515Z,102104.16
2022-08-12T07:30:05.851Z,102110.28
2022-08-12T07:32:32.531Z,102114.13
2022-08-12T07:34:59.122Z,102110.00
2022-08-12T07:37:26.533Z,102109.91
2022-08-12T07:39:59.591Z,102111.75
2022-08-12T07:42:28.869Z,102120.66
2022-08-12T07:44:56.494Z,102108.63
2022-08-12T07:47:23.822Z,102115.41
2022-08-12T07:50:05.015Z,102110.94
2022-08-12T07:52:44.839Z,102115.25
2022-08-12T07:55:12.726Z,102119.03
2022-08-12T07:58:01.152Z,102121.69
2022-08-12T08:00:30.012Z,102122.91
2022-08-12T08:02:56.630Z,102118.44
2022-08-12T08:05:25.893Z,102134.06
2022-08-12T08:08:01.754Z,102124.00
2022-08-12T08:10:30.313Z,102125.66
2022-08-12T08:12:59.509Z,102124.41
2022-08-12T08:16:00.799Z,102122.91
2022-08-12T08:18:25.943Z,102117.34
2022-08-12T08:20:54.771Z,102122.03
2022-08-12T08:23:21.790Z,102119.94
2022-08-12T08:25:50.239Z,102111.50
2022-08-12T08:28:21.330Z,102114.66
2022-08-12T08:30:50.420Z,102116.63
2022-08-12T08:33:24.788Z,102110.53
2022-08-12T08:36:07.629Z,102120.19
2022-08-12T08:38:56.072Z,102118.28
2022-08-12T08:42:14.253Z,102122.66
2022-08-12T08:44:33.685Z,102126.88
2022-08-12T08:47:03.464Z,102115.78
2022-08-12T08:49:30.716Z,102129.28
2022-08-12T08:51:57.509Z,102119.69
2022-08-12T08:54:24.829Z,102121.63
2022-08-12T08:56:52.379Z,102126.19
2022-08-12T08:59:20.161Z,102126.19
2022-08-12T09:01:47.811Z,102123.50
2022-08-12T09:05:12.545Z,102118.72
2022-08-12T09:10:02.316Z,102123.69
2022-08-12T09:13:00.613Z,102132.66
2022-08-12T09:15:33.309Z,102122.91
2022-08-12T09:18:05.932Z,102112.06
2022-08-12T09:20:36.824Z,102114.16
2022-08-12T09:24:00.076Z,102117.34
2022-08-12T09:25:56.587Z,102115.59
2022-08-12T09:32:07.711Z,102111.16
2022-08-12T09:34:25.784Z,102105.19
2022-08-12T09:36:57.641Z,102108.72
2022-08-12T09:40:03.556Z,102114.41
2022-08-12T09:42:54.109Z,102104.25
2022-08-12T09:46:06.717Z,102111.88
2022-08-12T09:48:20.319Z,102114.88
2022-08-12T09:50:51.980Z,102119.34
2022-08-12T09:53:36.334Z,102107.84
2022-08-12T09:56:58.791Z,102108.41
2022-08-12T09:59:00.551Z,102101.16
2022-08-12T10:01:35.492Z,102102.00
2022-08-12T10:04:19.131Z,102089.53
2022-08-12T10:06:54.703Z,102089.66
2022-08-12T10:09:28.220Z,102086.91
2022-08-12T10:12:31.436Z,102083.97
2022-08-12T10:14:59.958Z,102079.63
2022-08-12T10:17:26.607Z,102082.91
2022-08-12T10:19:53.375Z,102073.44
2022-08-12T10:22:49.215Z,102072.25
2022-08-12T10:26:35.642Z,102068.19
2022-08-12T10:28:38.197Z,102056.88
2022-08-12T10:31:05.729Z,102066.75
2022-08-12T10:33:55.019Z,102061.69
2022-08-12T10:36:21.097Z,102054.59
2022-08-12T10:39:03.657Z,102055.25
2022-08-12T10:42:08.913Z,102040.25
2022-08-12T10:44:37.174Z,102042.56
2022-08-12T10:47:26.337Z,102042.38
2022-08-12T10:50:02.725Z,102039.44
2022-08-12T10:52:34.903Z,102043.25
2022-08-12T10:55:06.991Z,102030.69
2022-08-12T10:58:13.207Z,102023.47
2022-08-12T11:00:34.056Z,102022.44
2022-08-12T11:04:25.216Z,102022.78
2022-08-12T11:07:03.390Z,102027.19
2022-08-12T11:08:42.414Z,102024.91
2022-08-12T11:11:13.649Z,102018.72
2022-08-12T11:13:48.607Z,102016.28
2022-08-12T11:16:22.979Z,102017.06
2022-08-12T11:18:55.437Z,102015.78
2022-08-12T11:21:56.513Z,102018.38
2022-08-12T11:24:30.083Z,102013.31
2022-08-12T11:26:58.973Z,102002.88
2022-08-12T11:30:05.530Z,102010.84
2022-08-12T11:32:14.660Z,101999.22
2022-08-12T11:34:53.085Z,102006.97
2022-08-12T11:37:26.566Z,102007.22
2022-08-12T11:42:37.411Z,102006.09
2022-08-12T11:45:10.525Z,102005.84
2022-08-12T11:47:40.506Z,102004.41
2022-08-12T11:50:08.169Z,101997.00
2022-08-12T11:52:56.373Z,102002.50
2022-08-12T11:55:25.324Z,102003.25
2022-08-12T11:58:40.622Z,102006.03
2022-08-12T12:03:45.866Z,101993.84
2022-08-12T12:06:16.333Z,102003.53
2022-08-12T12:08:45.942Z,101994.81
2022-08-12T12:11:18.297Z,101985.50
2022-08-12T12:14:08.460Z,101991.41
2022-08-12T12:16:33.636Z,101976.31
2022-08-12T12:19:05.618Z,101982.75
2022-08-12T12:21:47.425Z,101978.50
2022-08-12T12:24:21.090Z,101980.28
2022-08-12T12:26:59.774Z,101981.03
2022-08-12T12:30:18.972Z,101987.66
2022-08-12T12:32:19.304Z,101984.69
2022-08-12T12:35:14.591Z,101977.97
2022-08-12T12:38:04.688Z,101973.84
2022-08-12T12:40:41.067Z,101964.38
2022-08-12T12:43:08.581Z,101964.22
2022-08-12T12:45:37.889Z,101956.19
2022-08-12T12:48:10.847Z,101960.94
2022-08-12T12:50:45.071Z,101970.81
2022-08-12T12:54:07.452Z,101958.53
2022-08-12T12:56:13.669Z,101948.94
2022-08-12T12:58:40.242Z,101963.91
2022-08-12T13:01:25.553Z,101954.47
2022-08-12T13:03:56.451Z,101957.38
2022-08-12T13:06:30.005Z,101952.44
2022-08-12T13:08:57.841Z,101956.75
2022-08-12T13:11:41.358Z,101941.81
2022-08-12T13:14:28.764Z,101943.19
2022-08-12T13:16:56.646Z,101943.66
2022-08-12T13:19:36.754Z,101943.84
2022-08-12T13:22:19.013Z,101936.31
2022-08-12T13:24:54.741Z,101945.94
2022-08-12T13:27:35.531Z,101947.63
2022-08-12T13:30:11.000Z,101945.50
2022-08-12T13:32:57.109Z,101933.47
2022-08-12T13:36:03.053Z,101938.38
2022-08-12T13:38:12.291Z,101931.16
2022-08-12T13:40:41.642Z,101942.41
2022-08-12T13:43:40.901Z,101942.28
2022-08-12T13:46:04.310Z,101946.97
2022-08-12T13:48:30.919Z,101936.38
2022-08-12T13:50:58.070Z,101933.84
2022-08-12T13:53:40.235Z,101937.22
2022-08-12T13:56:14.938Z,101929.59
2022-08-12T13:58:44.448Z,101928.78
2022-08-12T14:01:11.108Z,101922.16
2022-08-12T14:03:50.886Z,101931.28
2022-08-12T14:06:18.319Z,101922.47
2022-08-12T14:08:45.468Z,101921.09
2022-08-12T14:11:18.782Z,101916.25
2022-08-12T14:14:04.632Z,101917.56
2022-08-12T14:16:46.736Z,101916.69
2022-08-12T14:19:22.539Z,101913.66
2022-08-12T14:22:01.263Z,101914.19
2022-08-12T14:24:35.514Z,101910.97
2022-08-12T14:27:03.816Z,101905.91
2022-08-12T14:29:56.268Z,101902.16
2022-08-12T14:32:23.720Z,101903.78
2022-08-12T14:34:51.605Z,101904.44
2022-08-12T14:37:57.413Z,101909.19
2022-08-12T14:40:06.912Z,101899.66
2022-08-12T14:42:33.475Z,101899.03
2022-08-12T14:45:02.218Z,101899.31
2022-08-12T14:47:35.308Z,101896.47
2022-08-12T14:50:58.521Z,101900.16
2022-08-12T14:58:31.807Z,101895.84
2022-08-12T15:01:19.924Z,101891.28
2022-08-12T15:03:57.096Z,101886.59
2022-08-12T15:06:43.755Z,101887.97
2022-08-12T15:09:15.986Z,101882.88
2022-08-12T15:11:55.598Z,101882.84
2022-08-12T15:14:30.567Z,101882.56
2022-08-12T15:17:00.478Z,101884.13
2022-08-12T15:20:10.948Z,101872.78
2022-08-12T15:22:37.518Z,101872.59
2022-08-12T15:25:07.159Z,101872.38
2022-08-12T15:28:05.304Z,101866.81
2022-08-12T15:30:30.780Z,101869.28
2022-08-12T15:32:57.609Z,101855.06
2022-08-12T15:35:31.204Z,101863.94
2022-08-12T15:38:13.813Z,101868.00
2022-08-12T15:40:48.391Z,101864.78
2022-08-12T15:43:52.075Z,101860.84
2022-08-12T15:46:04.785Z,101863.69
2022-08-12T15:48:32.863Z,101861.00
2022-08-12T15:51:02.861Z,101857.22
2022-08-12T15:53:53.359Z,101855.72
2022-08-12T15:56:57.934Z,101855.44
2022-08-12T15:59:52.061Z,101851.84
2022-08-12T16:02:18.560Z,101847.53
2022-08-12T16:04:50.528Z,101851.84
2022-08-12T16:07:29.905Z,101846.16
2022-08-12T16:10:08.658Z,101841.03
2022-08-12T16:12:54.441Z,101845.28
2022-08-12T16:15:26.244Z,101839.09
2022-08-12T16:18:18.594Z,101831.28
2022-08-12T16:20:42.531Z,101834.94
2022-08-12T16:23:27.020Z,101841.69
2022-08-12T16:26:14.522Z,101841.03
2022-08-12T16:28:43.901Z,101835.47
2022-08-12T16:31:23.196Z,101833.34
2022-08-12T16:33:59.636Z,101828.34
2022-08-12T16:36:28.346Z,101826.59
2022-08-12T16:38:55.263Z,101823.66
2022-08-12T16:41:22.691Z,101819.22
2022-08-12T16:43:50.421Z,101810.97
2022-08-12T16:46:32.264Z,101816.50
2022-08-12T16:49:08.632Z,101811.34
2022-08-12T16:51:40.270Z,101818.00
2022-08-12T16:54:12.671Z,101814.03
2022-08-12T16:56:54.527Z,101808.41
2022-08-12T16:59:24.085Z,101816.06
2022-08-12T17:01:51.807Z,101812.63
2022-08-12T17:04:18.890Z,101819.72
2022-08-12T17:06:48.015Z,101819.94
2022-08-12T17:09:16.877Z,101816.91
2022-08-12T17:11:44.752Z,101811.50
2022-08-12T17:14:13.504Z,101802.28
2022-08-12T17:16:43.000Z,101793.63
2022-08-12T17:19:14.457Z,101801.63
2022-08-12T17:22:01.753Z,101802.22
2022-08-12T17:24:32.570Z,101799.78
2022-08-12T17:27:16.308Z,101806.00
2022-08-12T17:30:02.053Z,101805.38
2022-08-12T17:32:33.879Z,101803.88
2022-08-12T17:35:20.423Z,101803.22
2022-08-12T17:37:48.637Z,101808.81
2022-08-12T17:40:34.606Z,101803.06
2022-08-12T17:43:51.895Z,101814.59
2022-08-12T17:45:56.484Z,101807.09
2022-08-12T17:48:35.060Z,101806.03
2022-08-12T17:51:15.517Z,101810.91
2022-08-12T17:54:10.221Z,101809.88
2022-08-12T17:56:32.221Z,101814.38
2022-08-12T17:59:00.460Z,101810.09
2022-08-12T18:01:28.865Z,101814.44
2022-08-12T18:04:21.248Z,101807.31
2022-08-12T18:06:50.401Z,101810.63
2022-08-12T18:09:17.726Z,101814.00
2022-08-12T18:12:08.004Z,101818.91
2022-08-12T18:14:36.923Z,101820.69
2022-08-12T18:17:08.785Z,101821.31
2022-08-12T18:20:04.175Z,101823.63
2022-08-12T18:22:30.567Z,101822.78
2022-08-12T18:25:05.593Z,101829.31
2022-08-12T18:27:44.224Z,101829.09
2022-08-12T18:30:20.728Z,101841.34
2022-08-12T18:33:03.721Z,101840.19
2022-08-12T18:35:46.511Z,101838.16
2022-08-12T18:38:22.051Z,101837.50
2022-08-12T18:41:09.955Z,101844.53
2022-08-12T18:43:59.402Z,101840.31
2022-08-12T18:46:42.779Z,101841.22
2022-08-12T18:49:18.991Z,101838.63
2022-08-12T18:52:02.249Z,101836.47
2022-08-12T18:54:41.389Z,101848.38
2022-08-12T18:57:19.679Z,101840.81
2022-08-12T19:00:06.698Z,101848.72
2022-08-12T19:02:39.781Z,101852.63
2022-08-12T19:05:11.372Z,101848.88
2022-08-12T19:07:58.060Z,101849.50
2022-08-12T19:10:31.163Z,101852.56
2022-08-12T19:13:24.364Z,101858.03
2022-08-12T19:15:57.456Z,101856.00
2022-08-12T19:18:29.240Z,101854.91
2022-08-12T19:20:56.841Z,101856.75
2022-08-12T19:23:33.835Z,101854.72
2022-08-12T19:26:03.785Z,101851.53
2022-08-12T19:28:36.226Z,101844.13
2022-08-12T19:32:02.161Z,101849.69
2022-08-12T19:37:38.567Z,101858.94
2022-08-12T19:40:31.435Z,101863.53
2022-08-12T19:43:13.467Z,101852.41
2022-08-12T19:45:50.801Z,101859.44
2022-08-12T19:48:19.881Z,101852.25
2022-08-12T19:50:52.538Z,101855.75
2022-08-12T19:53:22.882Z,101855.66
2022-08-12T19:55:52.628Z,101864.22
2022-08-12T19:58:21.050Z,101859.53
2022-08-12T20:00:53.519Z,101854.06
2022-08-12T20:03:39.218Z,101853.78
2022-08-12T20:06:13.705Z,101842.78
2022-08-12T20:08:48.793Z,101854.78
2022-08-12T20:12:09.598Z,101853.47
2022-08-12T20:14:04.873Z,101858.25
2022-08-12T20:16:56.533Z,101867.69
2022-08-12T20:19:52.678Z,101866.34
2022-08-12T20:22:24.565Z,101863.59
2022-08-12T20:25:09.089Z,101863.06
2022-08-12T20:28:04.737Z,101869.47
2022-08-12T20:30:52.903Z,101861.97
2022-08-12T20:33:17.398Z,101864.22
2022-08-12T20:36:06.579Z,101863.38
2022-08-12T20:38:37.350Z,101867.25
2022-08-12T20:41:16.736Z,101868.66
2022-08-12T20:43:47.531Z,101866.13
2022-08-12T20:46:14.186Z,101865.88
2022-08-12T20:48:44.282Z,101866.97
2022-08-12T20:51:18.929Z,101866.41
2022-08-12T20:53:58.282Z,101861.97
2022-08-12T20:56:35.001Z,101855.88
2022-08-12T20:59:10.336Z,101864.97
2022-08-12T21:01:47.360Z,101854.75
2022-08-12T21:04:35.603Z,101861.38
2022-08-12T21:07:04.601Z,101865.25
2022-08-12T21:09:47.608Z,101852.81
2022-08-12T21:12:28.334Z,101850.59
2022-08-12T21:15:18.078Z,101850.28
2022-08-12T21:18:11.299Z,101858.59
2022-08-12T21:20:51.917Z,101859.69
2022-08-12T21:23:22.662Z,101853.84
2022-08-12T21:25:52.805Z,101858.84
2022-08-12T21:28:31.195Z,101861.59
2022-08-12T21:32:34.976Z,101862.97
2022-08-12T21:34:07.556Z,101859.66
2022-08-12T21:36:39.657Z,101864.28
2022-08-12T21:39:18.973Z,101854.28
2022-08-12T21:41:53.301Z,101857.88
2022-08-12T21:45:46.456Z,101860.63
2022-08-12T21:47:20.748Z,101856.47
2022-08-12T21:50:03.218Z,101856.72
2022-08-12T21:52:35.748Z,101867.75
2022-08-12T21:55:08.651Z,101863.25
2022-08-12T21:57:50.739Z,101861.81
2022-08-12T22:00:21.788Z,101851.53
2022-08-12T22:03:07.879Z,101857.06
2022-08-12T22:05:53.450Z,101862.53
2022-08-12T22:08:22.411Z,101862.19
2022-08-12T22:10:56.178Z,101858.25
2022-08-12T22:14:02.476Z,101866.19
2022-08-12T22:16:11.257Z,101858.66
2022-08-12T22:18:40.402Z,101858.38
2022-08-12T22:21:09.024Z,101863.16
2022-08-12T22:23:51.970Z,101860.06
2022-08-12T22:26:29.397Z,101869.34
2022-08-12T22:29:23.702Z,101859.34
2022-08-12T22:31:54.640Z,101850.50
2022-08-12T22:34:22.154Z,101866.50
2022-08-12T22:36:57.188Z,101865.91
2022-08-12T22:39:24.097Z,101860.09
2022-08-12T22:42:11.750Z,101863.31
2022-08-12T22:44:56.728Z,101865.78
2022-08-12T22:47:53.391Z,101863.16
2022-08-12T22:50:28.166Z,101863.44
2022-08-12T22:53:15.574Z,101869.53
2022-08-12T22:55:59.908Z,101860.06
2022-08-12T22:58:40.238Z,101855.63
2022-08-12T23:01:08.554Z,101858.59
2022-08-12T23:03:48.930Z,101863.81
2022-08-12T23:06:23.931Z,101854.19
2022-08-12T23:08:51.740Z,101858.66
2022-08-12T23:11:23.642Z,101861.81
2022-08-12T23:13:56.976Z,101856.50
2022-08-12T23:16:31.832Z,101865.31
2022-08-12T23:19:17.953Z,101854.44
2022-08-12T23:22:06.077Z,101861.63
2022-08-12T23:24:56.386Z,101859.47
2022-08-12T23:27:51.287Z,101864.88
2022-08-12T23:30:24.752Z,101862.13
2022-08-12T23:32:54.850Z,101855.34
2022-08-12T23:35:45.798Z,101860.53
2022-08-12T23:38:30.843Z,101856.03
2022-08-12T23:41:01.165Z,101869.75
2022-08-12T23:43:39.868Z,101866.47
2022-08-12T23:46:18.698Z,101859.69
2022-08-12T23:48:47.871Z,101856.69
2022-08-12T23:51:21.956Z,101859.88
2022-08-12T23:53:50.653Z,101864.25
2022-08-12T23:56:17.726Z,101865.59
2022-08-12T23:58:49.729Z,101867.06
